createdAt,value
2022-10-26T00:02:08.906Z,1001.6
2022-10-26T00:04:08.765Z,1001.6
2022-10-26T00:06:19.072Z,1001.5
2022-10-26T00:09:08.884Z,1001.5
2022-10-26T00:12:09.771Z,1001.5
2022-10-26T00:14:08.774Z,1001.6
2022-10-26T00:17:08.748Z,1001.7
2022-10-26T00:19:08.778Z,1001.6
2022-10-26T00:21:08.776Z,1001.7
2022-10-26T00:24:08.824Z,1001.7
2022-10-26T00:26:09.188Z,1001.6
2022-10-26T00:29:08.760Z,1001.6
2022-10-26T00:31:08.764Z,1001.7
2022-10-26T00:34:08.724Z,1001.6
2022-10-26T00:36:08.729Z,1001.5
2022-10-26T00:38:08.793Z,1001.5
2022-10-26T00:41:08.760Z,1001.6
2022-10-26T00:43:08.761Z,1001.6
2022-10-26T00:46:08.789Z,1001.4
2022-10-26T00:49:08.853Z,1001.6
2022-10-26T00:52:08.703Z,1001.6
2022-10-26T00:54:08.730Z,1001.6
2022-10-26T00:57:08.707Z,1001.6
2022-10-26T00:59:08.813Z,1001.6
2022-10-26T01:02:08.728Z,1001.6
2022-10-26T01:04:08.806Z,1001.6
2022-10-26T01:08:08.744Z,1001.5
2022-10-26T01:10:19.061Z,1001.5
2022-10-26T01:15:08.725Z,1001.5
2022-10-26T01:24:08.783Z,1001.4
2022-10-26T01:27:08.757Z,1001.3
2022-10-26T01:29:41.305Z,1001.3
2022-10-26T01:32:19.062Z,1001.2
2022-10-26T01:35:08.745Z,1001.2
2022-10-26T01:37:08.767Z,1001.3
2022-10-26T01:40:08.732Z,1001.3
2022-10-26T01:42:08.782Z,1001.2
2022-10-26T01:45:08.778Z,1001.3
2022-10-26T01:48:08.768Z,1001.3
2022-10-26T01:50:08.743Z,1001.4
2022-10-26T01:53:08.772Z,1001.5
2022-10-26T01:56:08.729Z,1001.5
2022-10-26T01:58:08.763Z,1001.5
2022-10-26T02:01:08.774Z,1001.5
2022-10-26T02:04:08.750Z,1001.5
2022-10-26T02:06:08.788Z,1001.3
2022-10-26T02:09:08.767Z,1001.2
2022-10-26T02:12:08.736Z,1001.2
2022-10-26T02:14:08.862Z,1001.1
2022-10-26T02:16:08.813Z,1001.1
2022-10-26T02:19:08.737Z,1001.1
2022-10-26T02:21:08.770Z,1001.2
2022-10-26T02:23:08.754Z,1001.2
2022-10-26T02:26:08.815Z,1001.1
2022-10-26T02:29:08.767Z,1001.2
2022-10-26T02:31:08.796Z,1001.3
2022-10-26T02:34:08.773Z,1001.4
2022-10-26T02:36:09.174Z,1001.3
2022-10-26T02:39:08.780Z,1001.2
2022-10-26T02:41:08.758Z,1001.2
2022-10-26T02:44:08.763Z,1001.4
2022-10-26T02:47:08.745Z,1001.4
2022-10-26T02:49:08.770Z,1001.4
2022-10-26T02:51:08.763Z,1001.4
2022-10-26T02:54:08.784Z,1001.5
2022-10-26T02:57:08.758Z,1001.6
2022-10-26T03:00:08.791Z,1001.6
2022-10-26T03:03:08.799Z,1001.4
2022-10-26T03:05:08.775Z,1001.4
2022-10-26T03:08:08.812Z,1001.4
2022-10-26T03:10:08.811Z,1001.4
2022-10-26T03:13:08.761Z,1001.4
2022-10-26T03:15:08.785Z,1001.4
2022-10-26T03:17:08.800Z,1001.4
2022-10-26T03:20:08.811Z,1001.4
2022-10-26T03:23:08.787Z,1001.4
2022-10-26T03:26:08.807Z,1001.3
2022-10-26T03:29:08.807Z,1001.3
2022-10-26T03:31:08.815Z,1001.3
2022-10-26T03:34:08.807Z,1001.3
2022-10-26T03:36:08.801Z,1001.3
2022-10-26T03:38:08.809Z,1001.2
2022-10-26T03:41:08.795Z,1001.2
2022-10-26T03:43:08.815Z,1001.2
2022-10-26T03:45:08.804Z,1001.2
2022-10-26T03:48:08.795Z,1001.3
2022-10-26T03:51:08.806Z,1001.2
2022-10-26T03:54:08.780Z,1001.2
2022-10-26T03:56:08.809Z,1001.2
2022-10-26T03:59:08.796Z,1001.2
2022-10-26T04:01:08.830Z,1001.2
2022-10-26T04:04:08.824Z,1001.1
2022-10-26T04:06:08.786Z,1001.2
2022-10-26T04:08:08.786Z,1001.2
2022-10-26T04:10:08.770Z,1001.2
2022-10-26T04:13:08.815Z,1001.2
2022-10-26T04:16:08.763Z,1001.2
2022-10-26T04:19:08.799Z,1001.2
2022-10-26T04:22:08.774Z,1001.1
2022-10-26T04:24:08.764Z,1001.1
2022-10-26T04:27:08.808Z,1001.2
2022-10-26T04:30:08.755Z,1001.2
2022-10-26T04:32:08.792Z,1001.2
2022-10-26T04:35:10.937Z,1001.2
2022-10-26T04:38:08.816Z,1001.2
2022-10-26T04:40:08.790Z,1001.2
2022-10-26T04:43:08.804Z,1001.2
2022-10-26T04:45:09.582Z,1001.1
2022-10-26T04:48:08.794Z,1001.1
2022-10-26T04:51:08.810Z,1001.1
2022-10-26T04:54:08.784Z,1001
2022-10-26T04:56:08.781Z,1001
2022-10-26T04:58:09.836Z,1001.1
2022-10-26T05:01:08.943Z,1001.1
2022-10-26T05:04:08.887Z,1001.3
2022-10-26T05:07:08.798Z,1001.3
2022-10-26T05:09:08.961Z,1001.2
2022-10-26T05:11:08.864Z,1001.2
2022-10-26T05:13:08.851Z,1001.2
2022-10-26T05:16:08.785Z,1001.3
2022-10-26T05:19:08.809Z,1001.3
2022-10-26T05:21:09.379Z,1001.3
2022-10-26T05:24:10.200Z,1001.4
2022-10-26T05:27:08.807Z,1001.3
2022-10-26T05:30:08.835Z,1001.4
2022-10-26T05:33:08.843Z,1001.4
2022-10-26T05:36:08.766Z,1001.3
2022-10-26T05:39:08.927Z,1001.3
2022-10-26T05:42:08.823Z,1001.3
2022-10-26T05:45:08.842Z,1001.3
2022-10-26T05:48:08.784Z,1001.4
2022-10-26T05:50:08.836Z,1001.4
2022-10-26T05:53:08.793Z,1001.5
2022-10-26T05:55:08.859Z,1001.5
2022-10-26T05:58:08.761Z,1001.6
2022-10-26T06:00:08.802Z,1001.6
2022-10-26T06:02:08.949Z,1001.6
2022-10-26T06:05:08.794Z,1001.6
2022-10-26T06:08:08.775Z,1001.6
2022-10-26T06:10:08.795Z,1001.5
2022-10-26T06:13:08.780Z,1001.6
2022-10-26T06:16:08.778Z,1001.6
2022-10-26T06:18:08.777Z,1001.6
2022-10-26T06:20:08.899Z,1001.5
2022-10-26T06:23:08.801Z,1001.6
2022-10-26T06:25:08.821Z,1001.6
2022-10-26T06:28:08.788Z,1001.6
2022-10-26T06:31:08.784Z,1001.7
2022-10-26T06:33:18.163Z,1001.7
2022-10-26T06:36:08.816Z,1001.7
2022-10-26T06:38:08.807Z,1001.8
2022-10-26T06:40:08.835Z,1001.8
2022-10-26T06:43:08.814Z,1001.8
2022-10-26T06:46:08.799Z,1001.9
2022-10-26T06:48:08.802Z,1002
2022-10-26T06:51:08.838Z,1002
2022-10-26T06:54:08.795Z,1002.1
2022-10-26T06:56:08.809Z,1002.1
2022-10-26T06:59:08.799Z,1002
2022-10-26T07:01:08.956Z,1002
2022-10-26T07:04:08.845Z,1002.1
2022-10-26T07:07:08.816Z,1002.1
2022-10-26T07:10:08.828Z,1002.1
2022-10-26T07:12:08.845Z,1002.3
2022-10-26T07:14:08.854Z,1002.2
2022-10-26T07:17:08.831Z,1002.3
2022-10-26T07:20:08.830Z,1002.3
2022-10-26T07:22:08.846Z,1002.3
2022-10-26T07:25:08.830Z,1002.4
2022-10-26T07:27:08.844Z,1002.4
2022-10-26T07:30:08.826Z,1002.5
2022-10-26T07:32:08.853Z,1002.4
2022-10-26T07:35:08.797Z,1002.4
2022-10-26T07:37:08.829Z,1002.4
2022-10-26T07:39:08.797Z,1002.5
2022-10-26T07:41:08.809Z,1002.4
2022-10-26T07:44:08.820Z,1002.4
2022-10-26T07:46:08.836Z,1002.4
2022-10-26T07:48:08.842Z,1002.5
2022-10-26T07:51:08.804Z,1002.6
2022-10-26T07:53:08.815Z,1002.6
2022-10-26T07:55:08.863Z,1002.6
2022-10-26T07:58:08.808Z,1002.8
2022-10-26T08:00:08.843Z,1002.8
2022-10-26T08:02:08.936Z,1002.8
2022-10-26T08:05:08.795Z,1002.9
2022-10-26T08:07:08.827Z,1002.9
2022-10-26T08:10:08.791Z,1003
2022-10-26T08:12:08.824Z,1003
2022-10-26T08:15:08.841Z,1003
2022-10-26T08:18:08.820Z,1002.9
2022-10-26T08:21:10.603Z,1003
2022-10-26T08:23:09.262Z,1003
2022-10-26T08:26:08.835Z,1002.9
2022-10-26T08:29:08.830Z,1002.9
2022-10-26T08:32:08.860Z,1002.9
2022-10-26T08:35:08.832Z,1002.8
2022-10-26T08:37:08.855Z,1002.9
2022-10-26T08:40:08.878Z,1002.9
2022-10-26T08:43:08.911Z,1003
2022-10-26T08:46:08.838Z,1003
2022-10-26T08:48:08.875Z,1003
2022-10-26T08:51:08.846Z,1003
2022-10-26T08:54:08.835Z,1003
2022-10-26T08:56:08.860Z,1003.1
2022-10-26T08:59:08.861Z,1003
2022-10-26T09:02:08.805Z,1003
2022-10-26T09:05:08.838Z,1003.1
2022-10-26T09:08:08.805Z,1003.1
2022-10-26T09:11:08.838Z,1003.1
2022-10-26T09:13:08.835Z,1003.2
2022-10-26T09:16:09.920Z,1003.1
2022-10-26T09:19:08.843Z,1003.1
2022-10-26T09:22:08.804Z,1003.1
2022-10-26T09:24:08.828Z,1003.2
2022-10-26T09:27:08.829Z,1003.1
2022-10-26T09:30:08.823Z,1003.1
2022-10-26T09:32:08.850Z,1003.1
2022-10-26T09:35:08.830Z,1003.2
2022-10-26T09:37:08.844Z,1003.2
2022-10-26T09:40:08.860Z,1003.2
2022-10-26T09:42:08.863Z,1003.3
2022-10-26T09:45:08.849Z,1003.3
2022-10-26T09:48:08.865Z,1003.3
2022-10-26T09:51:08.839Z,1003.4
2022-10-26T09:53:08.837Z,1003.5
2022-10-26T09:55:08.847Z,1003.5
2022-10-26T09:58:08.827Z,1003.5
2022-10-26T10:00:08.872Z,1003.4
2022-10-26T10:02:08.846Z,1003.5
2022-10-26T10:04:08.853Z,1003.5
2022-10-26T10:06:08.886Z,1003.6
2022-10-26T10:09:08.861Z,1003.7
2022-10-26T10:12:08.864Z,1003.7
2022-10-26T10:15:08.847Z,1003.8
2022-10-26T10:17:08.902Z,1003.7
2022-10-26T10:19:08.887Z,1003.8
2022-10-26T10:22:08.878Z,1003.9
2022-10-26T10:25:08.831Z,1003.9
2022-10-26T10:28:08.881Z,1003.8
2022-10-26T10:30:09.020Z,1003.8
2022-10-26T10:33:08.855Z,1003.9
2022-10-26T10:36:08.864Z,1003.9
2022-10-26T10:39:08.839Z,1003.9
2022-10-26T10:41:08.895Z,1004
2022-10-26T10:44:08.841Z,1004
2022-10-26T10:46:08.862Z,1004
2022-10-26T10:48:08.874Z,1004
2022-10-26T10:51:08.884Z,1004.1
2022-10-26T10:53:08.862Z,1004.1
2022-10-26T10:56:10.655Z,1004.1
2022-10-26T10:58:08.885Z,1004.1
2022-10-26T11:01:08.929Z,1004.1
2022-10-26T11:04:08.924Z,1004.2
2022-10-26T11:08:08.878Z,1004.2
2022-10-26T11:10:19.147Z,1004.2
2022-10-26T11:14:08.870Z,1004.3
2022-10-26T11:16:08.862Z,1004.2
2022-10-26T11:19:08.853Z,1004.2
2022-10-26T11:22:09.906Z,1004.3
2022-10-26T11:25:08.842Z,1004.4
2022-10-26T11:27:08.906Z,1004.3
2022-10-26T11:30:08.849Z,1004.3
2022-10-26T11:32:08.855Z,1004.3
2022-10-26T11:35:08.861Z,1004.3
2022-10-26T11:38:08.862Z,1004.3
2022-10-26T11:41:08.883Z,1004.3
2022-10-26T11:44:08.894Z,1004.4
2022-10-26T11:47:08.843Z,1004.3
2022-10-26T11:49:08.896Z,1004.3
2022-10-26T11:52:08.855Z,1004.3
2022-10-26T11:55:08.886Z,1004.4
2022-10-26T11:58:08.849Z,1004.4
2022-10-26T12:00:08.891Z,1004.3
2022-10-26T12:02:08.892Z,1004.3
2022-10-26T12:05:08.860Z,1004.4
2022-10-26T12:08:08.859Z,1004.4
2022-10-26T12:10:08.924Z,1004.4
2022-10-26T12:13:08.868Z,1004.5
2022-10-26T12:15:08.933Z,1004.4
2022-10-26T12:18:08.874Z,1004.4
2022-10-26T12:20:19.132Z,1004.4
2022-10-26T12:23:08.861Z,1004.4
2022-10-26T12:26:08.893Z,1004.4
2022-10-26T12:29:08.958Z,1004.4
2022-10-26T12:32:08.862Z,1004.4
2022-10-26T12:34:08.931Z,1004.4
2022-10-26T12:37:08.891Z,1004.5
2022-10-26T12:40:08.966Z,1004.5
2022-10-26T12:43:08.906Z,1004.4
2022-10-26T12:45:08.939Z,1004.4
2022-10-26T12:47:08.908Z,1004.5
2022-10-26T12:49:08.923Z,1004.5
2022-10-26T12:51:08.902Z,1004.5
2022-10-26T12:54:08.886Z,1004.5
2022-10-26T12:56:08.927Z,1004.5
2022-10-26T12:59:08.882Z,1004.7
2022-10-26T13:02:08.876Z,1004.6
2022-10-26T13:05:08.919Z,1004.6
2022-10-26T13:08:08.889Z,1004.7
2022-10-26T13:10:08.944Z,1004.7
2022-10-26T13:13:08.879Z,1004.7
2022-10-26T13:15:08.932Z,1004.7
2022-10-26T13:17:08.903Z,1004.7
2022-10-26T13:20:08.897Z,1004.8
2022-10-26T13:22:08.910Z,1004.6
2022-10-26T13:25:08.904Z,1004.8
2022-10-26T13:28:09.662Z,1004.8
2022-10-26T13:31:08.930Z,1004.8
2022-10-26T13:34:09.198Z,1004.8
2022-10-26T13:37:08.906Z,1004.8
2022-10-26T13:40:08.908Z,1004.8
2022-10-26T13:42:08.927Z,1004.8
2022-10-26T13:44:08.923Z,1004.8
2022-10-26T13:47:08.884Z,1004.9
2022-10-26T13:49:08.979Z,1004.9
2022-10-26T13:52:08.930Z,1004.9
2022-10-26T13:55:08.916Z,1004.9
2022-10-26T13:57:08.913Z,1004.9
2022-10-26T14:00:08.910Z,1005
2022-10-26T14:02:08.913Z,1005
2022-10-26T14:04:09.462Z,1004.9
2022-10-26T14:07:08.893Z,1004.9
2022-10-26T14:09:08.933Z,1005
2022-10-26T14:11:08.911Z,1005
2022-10-26T14:14:08.922Z,1005.1
2022-10-26T14:16:09.915Z,1005.1
2022-10-26T14:19:08.905Z,1005.1
2022-10-26T14:21:08.889Z,1005.1
2022-10-26T14:24:08.935Z,1005.2
2022-10-26T14:27:08.916Z,1005.2
2022-10-26T14:30:23.230Z,1005.2
2022-10-26T14:33:08.962Z,1005.3
2022-10-26T14:36:08.915Z,1005.3
2022-10-26T14:39:08.947Z,1005.3
2022-10-26T14:42:09.053Z,1005.3
2022-10-26T14:45:15.181Z,1005.3
2022-10-26T14:47:08.913Z,1005.4
2022-10-26T14:50:08.908Z,1005.4
2022-10-26T14:52:08.919Z,1005.4
2022-10-26T14:55:08.908Z,1005.4
2022-10-26T14:57:08.928Z,1005.5
2022-10-26T15:00:08.915Z,1005.5
2022-10-26T15:02:09.002Z,1005.5
2022-10-26T15:04:08.947Z,1005.5
2022-10-26T15:07:08.910Z,1005.5
2022-10-26T15:09:08.967Z,1005.6
2022-10-26T15:12:08.938Z,1005.6
2022-10-26T15:14:09.004Z,1005.6
2022-10-26T15:16:09.017Z,1005.7
2022-10-26T15:19:08.936Z,1005.7
2022-10-26T15:22:08.936Z,1005.8
2022-10-26T15:25:08.946Z,1005.9
2022-10-26T15:27:08.972Z,1005.9
2022-10-26T15:30:08.954Z,1005.9
2022-10-26T15:33:09.028Z,1005.9
2022-10-26T15:36:08.923Z,1005.9
2022-10-26T15:38:08.963Z,1006
2022-10-26T15:41:08.940Z,1006
2022-10-26T15:43:08.933Z,1006
2022-10-26T15:46:08.939Z,1005.9
2022-10-26T15:48:08.954Z,1006
2022-10-26T15:51:08.936Z,1006
2022-10-26T15:53:08.942Z,1006
2022-10-26T15:56:08.954Z,1006
2022-10-26T15:58:09.231Z,1006.1
2022-10-26T16:01:09.042Z,1006.1
2022-10-26T16:03:09.013Z,1006
2022-10-26T16:06:09.008Z,1006.1
2022-10-26T16:08:09.007Z,1006.2
2022-10-26T16:11:08.915Z,1006.2
2022-10-26T16:13:08.929Z,1006.3
2022-10-26T16:15:09.999Z,1006.3
2022-10-26T16:18:08.935Z,1006.3
2022-10-26T16:20:09.312Z,1006.3
2022-10-26T16:22:08.988Z,1006.3
2022-10-26T16:25:08.929Z,1006.4
2022-10-26T16:27:08.950Z,1006.4
2022-10-26T16:29:08.945Z,1006.4
2022-10-26T16:33:08.942Z,1006.5
2022-10-26T16:35:08.976Z,1006.5
2022-10-26T16:38:08.957Z,1006.5
2022-10-26T16:40:08.923Z,1006.5
2022-10-26T16:42:08.992Z,1006.5
2022-10-26T16:44:08.931Z,1006.5
2022-10-26T16:46:08.956Z,1006.6
2022-10-26T16:49:08.953Z,1006.6
2022-10-26T16:52:08.958Z,1006.7
2022-10-26T16:55:08.982Z,1006.8
2022-10-26T16:57:08.967Z,1006.8
2022-10-26T17:00:08.956Z,1006.9
2022-10-26T17:02:09.074Z,1006.9
2022-10-26T17:04:08.953Z,1006.9
2022-10-26T17:06:08.982Z,1007
2022-10-26T17:09:08.979Z,1007
2022-10-26T17:11:08.983Z,1007.1
2022-10-26T17:13:08.996Z,1007.1
2022-10-26T17:16:08.988Z,1007.1
2022-10-26T17:19:08.974Z,1007.1
2022-10-26T17:22:09.002Z,1007.2
2022-10-26T17:25:09.001Z,1007.2
2022-10-26T17:28:09.001Z,1007.3
2022-10-26T17:31:09.355Z,1007.4
2022-10-26T17:34:09.026Z,1007.4
2022-10-26T17:37:08.996Z,1007.4
2022-10-26T17:39:08.995Z,1007.5
2022-10-26T17:41:09.003Z,1007.6
2022-10-26T17:44:08.994Z,1007.6
2022-10-26T17:47:08.990Z,1007.6
2022-10-26T17:49:09.004Z,1007.6
2022-10-26T17:51:09.035Z,1007.6
2022-10-26T17:54:09.023Z,1007.6
2022-10-26T17:56:08.983Z,1007.7
2022-10-26T17:59:09.004Z,1007.7
2022-10-26T18:01:09.096Z,1007.8
2022-10-26T18:04:09.001Z,1007.7
2022-10-26T18:06:08.998Z,1007.8
2022-10-26T18:08:09.018Z,1007.8
2022-10-26T18:11:09.072Z,1007.9
2022-10-26T18:13:08.999Z,1007.9
2022-10-26T18:15:09.009Z,1007.9
2022-10-26T18:17:09.013Z,1008
2022-10-26T18:19:09.018Z,1008
2022-10-26T18:22:09.018Z,1008.1
2022-10-26T18:24:09.019Z,1008.1
2022-10-26T18:26:09.868Z,1008.1
2022-10-26T18:28:09.169Z,1008.1
2022-10-26T18:31:08.987Z,1008.1
2022-10-26T18:33:09.035Z,1008.1
2022-10-26T18:35:09.028Z,1008.1
2022-10-26T18:38:09.012Z,1008.1
2022-10-26T18:40:09.039Z,1008.1
2022-10-26T18:43:08.988Z,1008.2
2022-10-26T18:45:09.379Z,1008.2
2022-10-26T18:48:09.027Z,1008.2
2022-10-26T18:51:09.014Z,1008.2
2022-10-26T18:54:08.970Z,1008.2
2022-10-26T18:56:08.968Z,1008.2
2022-10-26T18:58:09.011Z,1008.2
2022-10-26T19:01:09.105Z,1008.3
2022-10-26T19:04:09.410Z,1008.3
2022-10-26T19:07:08.995Z,1008.3
2022-10-26T19:10:08.973Z,1008.3
2022-10-26T19:12:09.009Z,1008.4
2022-10-26T19:15:09.010Z,1008.4
2022-10-26T19:17:09.020Z,1008.4
2022-10-26T19:20:08.958Z,1008.4
2022-10-26T19:22:08.974Z,1008.4
2022-10-26T19:24:08.981Z,1008.4
2022-10-26T19:26:09.015Z,1008.4
2022-10-26T19:29:09.007Z,1008.5
2022-10-26T19:32:08.986Z,1008.5
2022-10-26T19:35:09.015Z,1008.5
2022-10-26T19:38:08.979Z,1008.5
2022-10-26T19:41:08.995Z,1008.5
2022-10-26T19:44:08.988Z,1008.5
2022-10-26T19:47:08.981Z,1008.5
2022-10-26T19:49:08.977Z,1008.5
2022-10-26T19:51:08.973Z,1008.5
2022-10-26T19:53:08.985Z,1008.5
2022-10-26T19:55:08.988Z,1008.6
2022-10-26T19:57:09.494Z,1008.5
2022-10-26T20:00:08.973Z,1008.6
2022-10-26T20:02:09.000Z,1008.5
2022-10-26T20:05:09.009Z,1008.6
2022-10-26T20:07:09.004Z,1008.6
2022-10-26T20:10:08.994Z,1008.6
2022-10-26T20:12:08.995Z,1008.7
2022-10-26T20:14:09.021Z,1008.7
2022-10-26T20:16:09.261Z,1008.7
2022-10-26T20:19:09.036Z,1008.6
2022-10-26T20:22:09.034Z,1008.6
2022-10-26T20:24:10.168Z,1008.7
2022-10-26T20:27:08.990Z,1008.7
2022-10-26T20:29:09.010Z,1008.7
2022-10-26T20:31:08.998Z,1008.7
2022-10-26T20:34:09.039Z,1008.7
2022-10-26T20:36:09.068Z,1008.7
2022-10-26T20:39:09.016Z,1008.7
2022-10-26T20:41:10.080Z,1008.7
2022-10-26T20:44:09.009Z,1008.7
2022-10-26T20:47:09.016Z,1008.6
2022-10-26T20:50:16.245Z,1008.6
2022-10-26T20:52:20.521Z,1008.6
2022-10-26T20:55:09.015Z,1008.6
2022-10-26T20:57:08.990Z,1008.7
2022-10-26T21:00:09.114Z,1008.7
2022-10-26T21:02:09.084Z,1008.8
2022-10-26T21:04:19.328Z,1008.7
2022-10-26T21:07:29.605Z,1008.8
2022-10-26T21:10:19.315Z,1008.8
2022-10-26T21:13:29.575Z,1008.8
2022-10-26T21:16:19.400Z,1008.8
2022-10-26T21:19:09.018Z,1008.8
2022-10-26T21:22:09.012Z,1008.8
2022-10-26T21:25:09.029Z,1008.9
2022-10-26T21:27:09.035Z,1008.9
2022-10-26T21:30:09.316Z,1008.8
2022-10-26T21:33:08.998Z,1008.8
2022-10-26T21:35:09.000Z,1008.8
2022-10-26T21:38:09.033Z,1008.8
2022-10-26T21:40:09.019Z,1008.8
2022-10-26T21:43:09.045Z,1008.8
2022-10-26T21:46:09.033Z,1008.8
2022-10-26T21:49:09.029Z,1008.9
2022-10-26T21:51:09.051Z,1008.9
2022-10-26T21:55:09.039Z,1008.9
2022-10-26T21:57:09.050Z,1008.9
2022-10-26T22:00:09.028Z,1009
2022-10-26T22:03:09.034Z,1009
2022-10-26T22:06:09.373Z,1009.1
2022-10-26T22:09:09.070Z,1009.1
2022-10-26T22:11:11.804Z,1009.1
2022-10-26T22:14:09.034Z,1009.1
2022-10-26T22:17:09.087Z,1009.1
2022-10-26T22:20:09.048Z,1009.2
2022-10-26T22:23:09.047Z,1009.2
2022-10-26T22:25:09.040Z,1009.1
2022-10-26T22:27:09.061Z,1009.1
2022-10-26T22:30:09.008Z,1009.1
2022-10-26T22:32:09.008Z,1009
2022-10-26T22:34:09.133Z,1009
2022-10-26T22:37:09.057Z,1009.1
2022-10-26T22:39:09.160Z,1009.1
2022-10-26T22:42:09.018Z,1009.1
2022-10-26T22:47:09.139Z,1009.3
2022-10-26T22:50:09.038Z,1009.3
2022-10-26T22:52:09.124Z,1009.3
2022-10-26T22:55:09.061Z,1009.2
2022-10-26T22:58:09.039Z,1009.3
2022-10-26T23:00:09.075Z,1009.3
2022-10-26T23:02:09.176Z,1009.4
2022-10-26T23:05:09.046Z,1009.3
2022-10-26T23:07:09.052Z,1009.3
2022-10-26T23:09:09.071Z,1009.4
2022-10-26T23:12:09.046Z,1009.6
2022-10-26T23:14:09.058Z,1009.5
2022-10-26T23:17:09.018Z,1009.5
2022-10-26T23:19:09.052Z,1009.5
2022-10-26T23:21:09.066Z,1009.5
2022-10-26T23:24:09.049Z,1009.5
2022-10-26T23:26:09.068Z,1009.5
2022-10-26T23:28:09.093Z,1009.5
2022-10-26T23:31:09.051Z,1009.6
2022-10-26T23:34:09.077Z,1009.6
2022-10-26T23:36:09.055Z,1009.6
2022-10-26T23:39:09.023Z,1009.6
2022-10-26T23:41:10.757Z,1009.5
2022-10-26T23:44:09.080Z,1009.5
2022-10-26T23:47:09.061Z,1009.5
2022-10-26T23:50:09.089Z,1009.6
2022-10-26T23:53:09.035Z,1009.6
2022-10-26T23:55:09.070Z,1009.6
2022-10-26T23:58:09.138Z,1009.6
